CYBB/YBB METAR and TAF weather

Enter ICAO airport designator
Station Type Date Time Source
CYBB METAR 2019/04/19 18:00 UTC NOAA

CYBB 191800Z 28010KT 15SM SCT090 BKN210 M20/M24 A2978 RMK AC3CI3 LAST STFD OBS/NXT 201500Z SLP090


Station Type Date Time Source
CYBB Decoded METAR 2019/04/19 18:00 UTC NOAA

Pelly Bay Airport, Canada (CYBB) 68-32N 089-49W
Apr 19, 2019 - 02:00 PM EDT / 2019.04.19 1800 UTC
Wind: from the W (280 degrees) at 12 MPH (10 KT):0
Visibility: 15 mile(s):0
Sky conditions: mostly cloudy
Temperature: -4 F (-20 C)
Windchill: -22 F (-30 C):2
Dew Point: -11 F (-24 C)
Relative Humidity: 70%
Pressure (altimeter): 29.78 in. Hg (1008 hPa)
ob: CYBB 191800Z 28010KT 15SM SCT090 BKN210 M20/M24 A2978 RMK AC3CI3 LAST STFD OBS/NXT 201500Z SLP090
cycle: 18

Station Type Date Time Source
CYBB TAF 2019/04/19 19:00 UTC NOAA

TAF CYBB 191838Z 1919/1923 28010KT P6SM SCT100 BKN200
RMK NXT FCST WILL BE ISSUED AT 201545Z

Example: see airport list